Time;durP1;ratioP1;P1;durP2;ratioP2;P2;SDS_P1;SDS_P2;PMS_P1;PMS_P2;Temp;Humidity;BMP_temperature;BMP_pressure;BME280_temperature;BME280_humidity;BME280_pressure;Samples;Min_cycle;Max_cycle;Signal;HPM_P1;HPM_P2
2023/05/07 00:00:36;;;;;;;7.57;6.38;;;17.10;99.90;;;;;;5011640;28;20025;-81
2023/05/07 00:03:02;;;;;;;6.85;6.10;;;17.10;99.90;;;;;;5033229;28;20039;-80
2023/05/07 00:05:28;;;;;;;6.82;6.05;;;17.00;99.90;;;;;;5012615;28;20450;-82
2023/05/07 00:07:55;;;;;;;8.10;5.88;;;17.10;99.90;;;;;;5026560;28;20380;-81
2023/05/07 00:10:21;;;;;;;9.90;6.07;;;17.10;99.90;;;;;;5021611;28;20035;-82
2023/05/07 00:12:47;;;;;;;6.93;6.30;;;17.00;99.90;;;;;;5033194;28;20017;-81
2023/05/07 00:15:12;;;;;;;8.68;5.88;;;17.10;99.90;;;;;;5028582;28;20017;-82
2023/05/07 00:17:38;;;;;;;9.15;7.07;;;17.00;99.90;;;;;;5034595;28;20037;-81
2023/05/07 00:20:05;;;;;;;8.00;6.43;;;17.00;99.90;;;;;;5022196;28;20585;-82
2023/05/07 00:22:32;;;;;;;10.13;6.45;;;16.90;99.90;;;;;;5031770;28;20650;-82
2023/05/07 00:24:57;;;;;;;13.07;6.88;;;16.90;99.90;;;;;;5020700;28;20049;-82
2023/05/07 00:27:23;;;;;;;9.55;6.55;;;17.00;99.90;;;;;;5034705;28;20428;-82
2023/05/07 00:29:49;;;;;;;8.40;6.43;;;16.90;99.90;;;;;;5032461;28;20030;-82
2023/05/07 00:32:17;;;;;;;6.53;5.90;;;16.90;99.90;;;;;;5035567;28;20137;-82
2023/05/07 00:34:44;;;;;;;11.00;6.10;;;16.90;99.90;;;;;;5037443;28;20025;-82
2023/05/07 00:37:12;;;;;;;9.77;6.80;;;16.90;99.90;;;;;;5023987;28;20033;-81
2023/05/07 00:39:37;;;;;;;11.43;6.63;;;16.90;99.90;;;;;;5034066;28;20536;-81
2023/05/07 00:42:03;;;;;;;8.23;6.47;;;16.90;99.90;;;;;;5037408;28;20167;-82
2023/05/07 00:44:29;;;;;;;9.02;6.90;;;16.90;99.90;;;;;;5033913;28;20017;-82
2023/05/07 00:47:01;;;;;;;8.93;7.38;;;16.90;99.90;;;;;;5036581;28;20341;-82
2023/05/07 00:49:38;;;;;;;13.00;7.00;;;16.90;99.90;;;;;;5021463;28;20032;-82
2023/05/07 00:52:04;;;;;;;7.63;6.82;;;16.80;99.90;;;;;;5036324;28;20032;-81
2023/05/07 00:54:29;;;;;;;9.07;7.47;;;16.80;99.90;;;;;;5036350;28;20017;-83
2023/05/07 00:56:55;;;;;;;10.70;7.38;;;16.80;99.90;;;;;;5037357;28;20497;-82
2023/05/07 00:59:21;;;;;;;12.85;7.63;;;16.80;99.90;;;;;;5035200;28;20203;-81
2023/05/07 01:01:47;;;;;;;10.73;8.15;;;16.80;99.90;;;;;;5031040;28;20112;-83
2023/05/07 01:04:13;;;;;;;10.40;7.95;;;16.80;99.90;;;;;;5036106;28;20025;-83
2023/05/07 01:06:39;;;;;;;11.25;8.32;;;16.80;99.90;;;;;;5033321;28;20438;-84
2023/05/07 01:09:05;;;;;;;13.20;7.95;;;16.80;99.90;;;;;;5037414;28;20103;-83
2023/05/07 01:11:31;;;;;;;11.63;8.50;;;16.70;99.90;;;;;;5017340;28;20013;-81
2023/05/07 01:14:00;;;;;;;12.48;8.32;;;16.70;99.90;;;;;;5035841;28;20025;-83
2023/05/07 01:16:28;;;;;;;11.45;9.13;;;16.70;99.90;;;;;;5033788;28;20037;-83
2023/05/07 01:18:54;;;;;;;14.13;9.32;;;16.70;99.90;;;;;;5024763;28;20025;-83
2023/05/07 01:21:26;;;;;;;12.45;9.02;;;16.70;99.90;;;;;;5034558;28;20499;-83
2023/05/07 01:23:52;;;;;;;12.47;9.40;;;16.70;99.90;;;;;;5032331;28;20041;-81
2023/05/07 01:26:19;;;;;;;12.25;8.70;;;16.70;99.90;;;;;;5036266;28;20028;-83
2023/05/07 01:28:45;;;;;;;12.80;9.23;;;16.70;99.90;;;;;;5019305;28;20033;-83
2023/05/07 01:31:13;;;;;;;12.77;9.25;;;16.60;99.90;;;;;;5020083;28;20021;-83
2023/05/07 01:33:42;;;;;;;15.98;9.45;;;16.60;99.90;;;;;;5014339;28;20054;-83
2023/05/07 01:36:10;;;;;;;14.40;9.05;;;16.60;99.90;;;;;;5033741;28;20499;-83
2023/05/07 01:38:40;;;;;;;12.82;9.07;;;16.60;99.90;;;;;;5018126;28;20612;-82
2023/05/07 01:41:07;;;;;;;12.43;8.80;;;16.60;99.90;;;;;;5033977;28;20488;-84
2023/05/07 01:43:33;;;;;;;14.60;9.73;;;16.50;99.90;;;;;;5029125;28;20093;-83
2023/05/07 01:46:01;;;;;;;13.13;9.55;;;16.50;99.90;;;;;;5033838;28;20029;-83
2023/05/07 01:48:27;;;;;;;11.85;9.23;;;16.50;99.90;;;;;;5032795;28;20017;-83
2023/05/07 01:50:53;;;;;;;15.55;10.05;;;16.50;99.90;;;;;;5031697;28;20005;-83
2023/05/07 01:53:18;;;;;;;11.75;9.73;;;16.40;99.90;;;;;;5031312;28;20172;-82
2023/05/07 01:55:45;;;;;;;11.65;9.30;;;16.40;99.90;;;;;;5019160;28;20021;-82
2023/05/07 01:58:10;;;;;;;12.38;9.93;;;16.40;99.90;;;;;;5032824;28;20013;-82
2023/05/07 02:00:36;;;;;;;12.93;9.98;;;16.40;99.90;;;;;;5016582;28;20068;-83
2023/05/07 02:03:02;;;;;;;14.43;9.65;;;16.40;99.90;;;;;;5024678;28;20033;-81
2023/05/07 02:05:27;;;;;;;14.48;10.68;;;16.50;99.90;;;;;;5060282;28;20021;-82
2023/05/07 02:07:55;;;;;;;14.18;10.75;;;16.40;99.90;;;;;;5017074;28;20033;-84
2023/05/07 02:10:23;;;;;;;15.43;11.05;;;16.40;99.90;;;;;;5036568;28;20030;-82
2023/05/07 02:12:48;;;;;;;13.98;11.43;;;16.40;99.90;;;;;;5041895;28;20029;-82
2023/05/07 02:15:14;;;;;;;17.65;11.38;;;16.40;99.90;;;;;;5031840;28;20036;-83
2023/05/07 02:17:59;;;;;;;15.60;11.20;;;16.30;99.90;;;;;;5022881;28;20060;-83
2023/05/07 02:20:24;;;;;;;15.20;12.18;;;16.30;99.90;;;;;;5043613;28;20035;-82
2023/05/07 02:22:50;;;;;;;15.43;11.73;;;16.30;99.90;;;;;;5022475;28;20029;-83
2023/05/07 02:25:16;;;;;;;16.23;11.52;;;16.30;99.90;;;;;;5024418;28;20373;-83
2023/05/07 02:27:41;;;;;;;15.48;11.30;;;16.30;99.90;;;;;;5018977;28;20025;-84
2023/05/07 02:30:09;;;;;;;14.20;11.55;;;16.30;99.90;;;;;;5029749;28;20112;-84
2023/05/07 02:32:35;;;;;;;14.82;11.75;;;16.30;99.90;;;;;;5031899;28;20053;-84
2023/05/07 02:35:01;;;;;;;14.00;11.60;;;16.30;99.90;;;;;;5029009;28;20238;-82
2023/05/07 02:37:26;;;;;;;18.15;11.77;;;16.30;99.90;;;;;;5034078;28;20779;-84
2023/05/07 02:39:52;;;;;;;15.80;12.23;;;16.30;99.90;;;;;;5023725;28;20036;-83
2023/05/07 02:42:19;;;;;;;14.63;11.45;;;16.20;99.90;;;;;;5023075;28;20599;-83
2023/05/07 02:44:45;;;;;;;16.08;12.25;;;16.30;99.90;;;;;;5033973;28;20029;-84
2023/05/07 02:47:12;;;;;;;15.00;11.70;;;16.20;99.90;;;;;;5032307;28;20396;-84
2023/05/07 02:49:38;;;;;;;15.10;12.38;;;16.20;99.90;;;;;;5016898;28;20022;-82
2023/05/07 02:52:06;;;;;;;15.07;11.15;;;16.20;99.90;;;;;;5035975;28;20021;-84
2023/05/07 02:54:32;;;;;;;18.58;11.35;;;16.20;99.90;;;;;;5018250;28;20021;-84
2023/05/07 02:56:57;;;;;;;16.20;11.05;;;16.10;99.90;;;;;;5036099;28;20147;-82
2023/05/07 02:59:24;;;;;;;18.67;11.82;;;16.10;99.90;;;;;;5019032;28;20017;-83
2023/05/07 03:01:49;;;;;;;13.80;11.10;;;16.00;99.90;;;;;;5031802;28;20037;-84
2023/05/07 03:04:15;;;;;;;12.82;10.43;;;16.10;99.90;;;;;;5049138;28;20538;-82
2023/05/07 03:06:40;;;;;;;13.30;11.02;;;16.00;99.90;;;;;;5039442;28;20037;-84
2023/05/07 03:09:08;;;;;;;15.75;11.73;;;16.00;99.90;;;;;;5037041;28;20640;-84
2023/05/07 03:11:35;;;;;;;15.23;10.93;;;16.10;99.90;;;;;;5021779;28;20076;-84
2023/05/07 03:14:01;;;;;;;13.98;11.13;;;16.10;99.90;;;;;;5018404;28;20456;-84
2023/05/07 03:16:27;;;;;;;14.65;11.38;;;16.00;99.90;;;;;;5013618;28;20033;-84
2023/05/07 03:18:55;;;;;;;13.55;11.18;;;16.00;99.90;;;;;;5034265;28;20533;-84
2023/05/07 03:21:23;;;;;;;16.75;11.60;;;16.00;99.90;;;;;;5022330;28;20091;-82
2023/05/07 03:23:48;;;;;;;16.55;11.57;;;16.00;99.90;;;;;;5033269;28;20867;-83
2023/05/07 03:26:14;;;;;;;16.30;11.27;;;15.90;99.90;;;;;;5016763;28;20017;-84
2023/05/07 03:28:39;;;;;;;14.52;10.73;;;15.90;99.90;;;;;;5033711;28;20088;-84
2023/05/07 03:31:05;;;;;;;13.18;10.73;;;15.90;99.90;;;;;;5034539;28;20051;-85
2023/05/07 03:33:34;;;;;;;17.10;11.80;;;15.90;99.90;;;;;;5036798;28;20068;-84
2023/05/07 03:36:01;;;;;;;16.90;10.90;;;15.80;99.90;;;;;;5033937;28;20067;-85
2023/05/07 03:38:26;;;;;;;16.15;10.90;;;15.80;99.90;;;;;;5015108;28;20477;-84
2023/05/07 03:40:52;;;;;;;15.00;11.00;;;15.80;99.90;;;;;;5032320;28;20059;-84
2023/05/07 03:43:17;;;;;;;14.75;11.18;;;15.80;99.90;;;;;;5032382;28;20025;-84
2023/05/07 03:45:43;;;;;;;21.33;11.65;;;15.80;99.90;;;;;;5033579;28;20017;-83
2023/05/07 03:48:09;;;;;;;15.95;11.48;;;15.80;99.90;;;;;;5033989;28;20091;-84
2023/05/07 03:50:37;;;;;;;12.98;10.65;;;15.80;99.90;;;;;;5033123;28;20021;-83
2023/05/07 03:53:03;;;;;;;14.52;11.30;;;15.80;99.90;;;;;;5033618;28;20022;-85
2023/05/07 03:55:31;;;;;;;12.63;10.48;;;15.80;99.90;;;;;;5019980;28;20527;-85
2023/05/07 03:57:57;;;;;;;16.85;11.43;;;15.80;99.90;;;;;;5028719;28;20080;-84
2023/05/07 04:00:25;;;;;;;14.85;10.98;;;15.80;99.90;;;;;;5029904;28;20055;-84
2023/05/07 04:02:50;;;;;;;14.20;11.13;;;15.80;99.90;;;;;;5035945;28;20040;-84
2023/05/07 04:05:16;;;;;;;15.38;11.23;;;15.80;99.90;;;;;;5033839;28;20540;-82
2023/05/07 04:07:42;;;;;;;13.57;10.75;;;15.80;99.90;;;;;;5026805;28;20097;-84
2023/05/07 04:10:08;;;;;;;16.48;10.68;;;15.80;99.90;;;;;;5040015;28;20040;-84
2023/05/07 04:12:36;;;;;;;12.48;10.30;;;15.70;99.90;;;;;;5016623;28;20036;-85
2023/05/07 04:15:04;;;;;;;13.82;10.57;;;15.70;99.90;;;;;;5038574;28;20089;-83
2023/05/07 04:17:30;;;;;;;13.52;10.77;;;15.70;99.90;;;;;;5038964;28;20045;-85
2023/05/07 04:19:58;;;;;;;13.32;9.68;;;15.80;99.90;;;;;;5049065;28;20028;-83
2023/05/07 04:22:23;;;;;;;13.90;10.32;;;15.90;99.90;;;;;;5034263;28;20170;-84
2023/05/07 04:24:51;;;;;;;16.60;10.73;;;15.90;99.90;;;;;;5038796;28;20067;-82
2023/05/07 04:27:17;;;;;;;15.85;11.23;;;15.90;99.90;;;;;;5017995;28;20071;-85
2023/05/07 04:29:46;;;;;;;18.83;11.45;;;15.90;99.90;;;;;;5039478;28;20358;-84
2023/05/07 04:32:13;;;;;;;17.67;10.75;;;15.90;99.90;;;;;;5032595;28;20536;-84
2023/05/07 04:34:38;;;;;;;12.85;10.65;;;16.00;99.90;;;;;;5024369;28;20029;-84
2023/05/07 04:37:06;;;;;;;17.45;10.93;;;16.00;99.90;;;;;;5017950;28;20030;-85
2023/05/07 04:39:35;;;;;;;13.27;10.82;;;16.00;99.90;;;;;;5034632;28;20496;-85
2023/05/07 04:42:00;;;;;;;15.02;10.82;;;16.10;99.90;;;;;;5033706;28;20122;-84
2023/05/07 04:44:27;;;;;;;15.10;11.07;;;16.10;99.90;;;;;;5035877;28;20738;-84
2023/05/07 04:46:52;;;;;;;17.38;11.00;;;16.10;99.90;;;;;;5038976;28;20033;-85
2023/05/07 04:49:18;;;;;;;14.23;11.00;;;16.10;99.90;;;;;;5017737;28;20056;-85
2023/05/07 04:51:44;;;;;;;13.18;10.60;;;16.10;99.90;;;;;;5037024;28;20121;-85
2023/05/07 04:54:12;;;;;;;14.88;10.70;;;16.20;99.90;;;;;;5037262;28;20053;-83
2023/05/07 04:56:37;;;;;;;17.55;10.32;;;16.20;99.90;;;;;;5035154;28;20029;-85
2023/05/07 04:59:03;;;;;;;12.95;10.50;;;16.30;99.90;;;;;;5035487;28;20023;-84
2023/05/07 05:01:29;;;;;;;18.98;10.50;;;16.30;99.90;;;;;;5015582;28;20032;-85
2023/05/07 05:03:54;;;;;;;14.45;10.40;;;16.30;99.90;;;;;;5033806;28;20017;-84
2023/05/07 05:06:20;;;;;;;16.52;11.23;;;16.40;99.90;;;;;;5035798;28;20139;-84
2023/05/07 05:08:46;;;;;;;11.65;9.85;;;16.40;99.90;;;;;;5016706;28;20110;-84
2023/05/07 05:11:11;;;;;;;12.52;10.20;;;16.40;99.90;;;;;;5016844;28;20017;-83
2023/05/07 05:13:37;;;;;;;13.98;10.48;;;16.50;99.90;;;;;;5035736;28;20040;-84
2023/05/07 05:16:02;;;;;;;13.45;9.65;;;16.50;99.90;;;;;;5033485;28;20037;-84
2023/05/07 05:18:28;;;;;;;14.88;9.85;;;16.50;99.90;;;;;;5027713;28;20019;-83
2023/05/07 05:20:54;;;;;;;14.15;9.65;;;16.50;99.90;;;;;;5052008;28;20025;-85
2023/05/07 05:23:20;;;;;;;15.40;11.07;;;16.60;99.90;;;;;;5042979;28;20032;-85
2023/05/07 05:25:45;;;;;;;13.30;10.05;;;16.60;99.90;;;;;;5035839;28;20029;-82
2023/05/07 05:28:11;;;;;;;11.63;9.25;;;16.60;99.90;;;;;;5019666;28;20386;-86
2023/05/07 05:30:39;;;;;;;12.77;9.07;;;16.60;99.90;;;;;;5017251;28;20017;-83
2023/05/07 05:33:04;;;;;;;13.85;9.82;;;16.60;99.90;;;;;;5055026;28;20036;-82
2023/05/07 05:35:32;;;;;;;13.13;9.57;;;16.60;99.90;;;;;;5055731;28;20033;-83
2023/05/07 05:37:58;;;;;;;11.82;8.82;;;16.60;99.90;;;;;;5039603;28;20040;-83
2023/05/07 05:40:23;;;;;;;14.32;10.02;;;16.60;99.90;;;;;;5040570;28;20059;-84
2023/05/07 05:42:49;;;;;;;14.07;9.63;;;16.70;99.90;;;;;;5034088;28;20040;-85
2023/05/07 05:45:17;;;;;;;13.00;9.38;;;16.70;99.90;;;;;;5020864;28;20022;-86
2023/05/07 05:47:43;;;;;;;12.38;8.95;;;16.70;99.90;;;;;;5022794;28;20378;-85
2023/05/07 05:50:09;;;;;;;11.80;8.90;;;16.80;99.90;;;;;;5035371;28;20556;-84
2023/05/07 05:52:34;;;;;;;10.98;9.13;;;16.80;99.90;;;;;;5034983;28;20021;-84
2023/05/07 05:55:02;;;;;;;13.93;8.70;;;16.90;99.90;;;;;;5034243;28;20029;-85
2023/05/07 05:57:28;;;;;;;10.82;9.18;;;16.90;99.90;;;;;;5035704;28;20045;-85
2023/05/07 05:59:56;;;;;;;11.70;8.80;;;17.00;99.90;;;;;;5039415;28;20044;-86
2023/05/07 06:02:24;;;;;;;13.88;8.55;;;16.90;99.90;;;;;;5035127;28;20516;-84
2023/05/07 06:04:50;;;;;;;11.88;9.13;;;17.00;99.90;;;;;;5033861;28;20030;-83
2023/05/07 06:07:20;;;;;;;12.98;9.82;;;17.00;99.90;;;;;;5034852;28;20083;-85
2023/05/07 06:09:46;;;;;;;13.15;9.82;;;17.10;99.90;;;;;;5024829;28;20037;-84
2023/05/07 06:12:12;;;;;;;12.20;9.05;;;17.00;99.90;;;;;;5031230;28;20040;-84
2023/05/07 06:14:37;;;;;;;11.20;8.60;;;17.00;99.90;;;;;;5020277;28;20029;-86
2023/05/07 06:17:03;;;;;;;11.93;8.90;;;17.00;99.90;;;;;;5024400;28;20040;-85
2023/05/07 06:19:31;;;;;;;15.15;9.35;;;17.20;99.90;;;;;;5033835;28;20614;-85
2023/05/07 06:22:01;;;;;;;13.50;8.90;;;17.20;99.90;;;;;;5022508;28;20025;-85
2023/05/07 06:24:29;;;;;;;13.40;9.27;;;17.40;99.90;;;;;;5022552;28;20037;-85
2023/05/07 06:26:55;;;;;;;11.52;8.60;;;17.50;99.90;;;;;;5023063;28;20036;-86
2023/05/07 06:29:20;;;;;;;11.02;9.43;;;17.60;99.90;;;;;;5016406;28;20013;-81
2023/05/07 06:31:46;;;;;;;10.77;8.73;;;17.70;99.90;;;;;;5024179;28;20734;-85
2023/05/07 06:34:14;;;;;;;12.77;8.50;;;17.70;99.90;;;;;;5038210;28;20053;-82
2023/05/07 06:36:40;;;;;;;9.88;8.02;;;17.80;99.90;;;;;;5039276;28;20021;-82
2023/05/07 06:39:08;;;;;;;11.00;8.25;;;17.80;99.90;;;;;;5052672;28;20396;-82
2023/05/07 06:41:35;;;;;;;9.25;7.82;;;18.00;99.90;;;;;;5037813;28;20035;-83
2023/05/07 06:44:04;;;;;;;13.48;8.35;;;18.10;99.90;;;;;;5035257;28;20112;-84
2023/05/07 06:46:30;;;;;;;8.55;7.65;;;18.20;99.90;;;;;;5034383;28;20017;-85
2023/05/07 06:48:56;;;;;;;10.35;7.78;;;18.20;99.90;;;;;;5034725;28;20029;-85
2023/05/07 06:51:22;;;;;;;11.00;8.40;;;18.30;99.90;;;;;;5016554;28;20039;-84
2023/05/07 06:53:48;;;;;;;9.68;8.10;;;18.40;99.90;;;;;;5017126;28;20029;-84
2023/05/07 06:56:14;;;;;;;12.65;7.95;;;18.40;99.90;;;;;;5034893;28;20371;-84
2023/05/07 06:58:39;;;;;;;10.02;7.40;;;18.30;99.90;;;;;;5033439;28;20032;-81
2023/05/07 07:01:05;;;;;;;10.45;7.90;;;18.50;99.90;;;;;;5033780;28;20049;-84
2023/05/07 07:03:31;;;;;;;11.20;7.78;;;18.50;99.90;;;;;;5014847;28;20056;-83
2023/05/07 07:05:56;;;;;;;8.75;7.40;;;18.70;99.90;;;;;;5012613;28;20017;-85
2023/05/07 07:08:22;;;;;;;11.40;7.25;;;18.80;99.90;;;;;;5032708;28;20107;-81
2023/05/07 07:10:48;;;;;;;11.52;7.47;;;18.90;99.90;;;;;;5020910;28;20025;-84
2023/05/07 07:13:14;;;;;;;8.40;7.47;;;18.90;99.90;;;;;;5023604;28;20040;-82
2023/05/07 07:15:39;;;;;;;10.13;7.63;;;19.00;99.90;;;;;;5054223;28;20051;-83
2023/05/07 07:18:06;;;;;;;9.93;7.20;;;19.10;99.90;;;;;;5057234;28;20240;-81
2023/05/07 07:20:32;;;;;;;9.48;7.68;;;19.10;99.90;;;;;;5055218;28;20029;-81
2023/05/07 07:22:57;;;;;;;9.60;7.18;;;19.20;99.90;;;;;;5022232;28;20037;-83
2023/05/07 07:25:23;;;;;;;12.25;7.70;;;19.20;99.90;;;;;;5034495;28;20021;-84
2023/05/07 07:27:49;;;;;;;8.63;6.72;;;19.30;99.90;;;;;;5033640;28;20102;-83
2023/05/07 07:30:15;;;;;;;10.48;6.93;;;19.50;99.90;;;;;;5031411;28;20550;-84
2023/05/07 07:32:40;;;;;;;8.45;7.32;;;19.60;99.90;;;;;;5031134;28;20060;-84
2023/05/07 07:35:09;;;;;;;10.75;7.35;;;19.80;99.90;;;;;;5032896;28;20032;-84
2023/05/07 07:37:37;;;;;;;7.22;6.43;;;20.00;99.90;;;;;;5019291;28;20407;-83
2023/05/07 07:40:03;;;;;;;8.45;6.38;;;20.20;99.90;;;;;;5033476;28;20323;-86
2023/05/07 07:42:29;;;;;;;11.75;6.93;;;20.30;99.90;;;;;;5032238;28;20571;-85
2023/05/07 07:44:55;;;;;;;7.20;6.43;;;20.40;99.90;;;;;;5017940;28;20029;-84
2023/05/07 07:47:20;;;;;;;8.98;6.68;;;20.50;99.90;;;;;;5014175;28;20021;-78
2023/05/07 07:49:46;;;;;;;6.38;5.78;;;20.60;99.90;;;;;;5031389;28;20030;-85
2023/05/07 07:52:11;;;;;;;9.27;6.60;;;20.70;99.90;;;;;;5016348;28;20112;-81
2023/05/07 07:54:37;;;;;;;9.63;5.85;;;20.70;99.90;;;;;;5016951;28;20037;-85
2023/05/07 07:57:03;;;;;;;8.95;6.05;;;20.80;99.90;;;;;;5041071;28;21009;-80
2023/05/07 07:59:31;;;;;;;7.03;6.32;;;20.80;99.90;;;;;;5028655;28;20021;-83
2023/05/07 08:01:56;;;;;;;11.13;6.28;;;20.80;99.90;;;;;;5041396;28;20048;-84
2023/05/07 08:04:22;;;;;;;9.13;6.15;;;20.90;99.90;;;;;;5052070;28;20025;-81
2023/05/07 08:06:51;;;;;;;7.00;6.10;;;20.80;99.90;;;;;;5037332;28;20030;-82
2023/05/07 08:09:16;;;;;;;9.63;5.55;;;20.90;99.90;;;;;;5033071;28;20029;-84
2023/05/07 08:11:42;;;;;;;8.52;5.72;;;21.10;99.90;;;;;;5037305;28;20526;-82
2023/05/07 08:14:08;;;;;;;6.10;5.53;;;21.20;99.90;;;;;;5019272;28;20527;-83
2023/05/07 08:16:33;;;;;;;5.80;5.20;;;21.40;99.90;;;;;;5020041;28;20044;-83
2023/05/07 08:18:59;;;;;;;6.47;5.35;;;21.60;99.90;;;;;;5018161;28;20017;-84
2023/05/07 08:21:26;;;;;;;6.10;4.93;;;21.90;99.90;;;;;;5029167;28;20270;-81
2023/05/07 08:23:52;;;;;;;7.18;5.38;;;22.10;99.90;;;;;;5035860;28;20024;-82
2023/05/07 08:26:17;;;;;;;6.13;5.18;;;22.50;99.90;;;;;;5041374;28;20036;-82
2023/05/07 08:28:43;;;;;;;6.07;5.00;;;22.70;99.90;;;;;;5030183;28;20029;-83
2023/05/07 08:31:08;;;;;;;7.47;5.50;;;22.80;99.90;;;;;;5017728;28;20291;-85
2023/05/07 08:33:34;;;;;;;7.07;5.57;;;22.80;99.90;;;;;;5020502;28;20028;-84
2023/05/07 08:36:02;;;;;;;8.63;5.40;;;22.70;99.90;;;;;;5033399;28;20026;-84
2023/05/07 08:38:30;;;;;;;992.78;458.58;;;22.90;99.90;;;;;;5032697;28;20037;-81
2023/05/07 08:40:56;;;;;;;5.82;5.22;;;23.10;99.90;;;;;;5016502;28;20029;-83
2023/05/07 08:43:26;;;;;;;7.13;5.20;;;23.40;99.90;;;;;;5016639;28;20028;-83
2023/05/07 08:45:55;;;;;;;6.28;4.57;;;23.40;99.90;;;;;;5032880;28;20067;-83
2023/05/07 08:48:25;;;;;;;6.82;4.82;;;23.30;99.90;;;;;;5046004;28;20026;-82
2023/05/07 08:50:53;;;;;;;5.82;5.22;;;23.50;99.90;;;;;;5053675;28;20038;-83
2023/05/07 08:53:20;;;;;;;5.47;4.35;;;23.70;99.90;;;;;;5036194;28;20423;-83
2023/05/07 08:55:47;;;;;;;7.05;4.85;;;23.90;99.90;;;;;;5035208;28;20104;-83
2023/05/07 08:58:15;;;;;;;5.68;5.03;;;23.90;99.90;;;;;;5035624;28;20067;-82
2023/05/07 09:00:42;;;;;;;6.80;5.07;;;24.10;99.90;;;;;;5016436;28;20017;-83
2023/05/07 09:03:07;;;;;;;6.20;4.57;;;23.90;99.90;;;;;;5022417;28;20025;-82
2023/05/07 09:05:33;;;;;;;6.43;4.95;;;23.70;99.90;;;;;;5034284;28;20093;-83
2023/05/07 09:08:01;;;;;;;6.40;5.22;;;23.60;99.90;;;;;;5033485;28;20393;-84
2023/05/07 09:10:29;;;;;;;6.32;5.07;;;23.70;99.90;;;;;;5031982;28;20025;-84
2023/05/07 09:12:55;;;;;;;6.53;4.93;;;23.90;99.90;;;;;;5023834;28;20021;-83
2023/05/07 09:15:21;;;;;;;5.80;5.22;;;24.20;99.90;;;;;;5035320;28;20097;-83
2023/05/07 09:17:46;;;;;;;5.18;4.78;;;24.40;99.90;;;;;;5031918;28;20021;-84
2023/05/07 09:20:12;;;;;;;6.35;5.05;;;24.50;99.90;;;;;;5031624;28;20406;-81
2023/05/07 09:22:38;;;;;;;165.48;79.70;;;24.60;99.90;;;;;;5036820;28;20056;-79
2023/05/07 09:25:08;;;;;;;5.60;5.07;;;24.70;99.90;;;;;;5014243;28;20572;-83
2023/05/07 09:27:33;;;;;;;5.35;4.90;;;24.70;99.90;;;;;;5035382;28;20022;-82
2023/05/07 09:29:59;;;;;;;6.28;5.40;;;24.50;99.90;;;;;;5034656;28;20083;-83
2023/05/07 09:32:25;;;;;;;5.93;5.20;;;24.60;99.90;;;;;;5033684;28;20163;-83
2023/05/07 09:34:51;;;;;;;9.25;5.47;;;24.90;99.90;;;;;;5030426;28;20471;-83
2023/05/07 09:37:17;;;;;;;6.88;5.43;;;25.30;99.90;;;;;;5035244;28;20149;-84
2023/05/07 09:39:45;;;;;;;8.80;5.95;;;25.60;99.90;;;;;;5032222;28;20021;-80
2023/05/07 09:42:12;;;;;;;6.72;5.32;;;25.80;99.90;;;;;;5021901;28;20022;-80
2023/05/07 09:44:38;;;;;;;9.15;5.55;;;25.50;99.60;;;;;;5028988;28;20017;-80
2023/05/07 09:47:07;;;;;;;7.03;5.15;;;25.40;99.90;;;;;;5034312;28;20025;-80
2023/05/07 09:49:38;;;;;;;8.40;5.40;;;25.30;99.60;;;;;;5036666;28;20118;-80
2023/05/07 09:52:06;;;;;;;5.85;5.25;;;25.50;99.90;;;;;;5034891;28;20033;-80
2023/05/07 09:54:33;;;;;;;7.10;5.03;;;25.60;99.90;;;;;;5018591;28;20099;-81
2023/05/07 09:57:03;;;;;;;5.32;4.82;;;26.10;99.90;;;;;;5015163;28;20753;-80
2023/05/07 09:59:34;;;;;;;5.75;5.00;;;26.70;98.00;;;;;;5030952;28;20029;-80
2023/05/07 10:02:02;;;;;;;5.53;4.80;;;27.10;98.70;;;;;;5033188;28;20078;-77
2023/05/07 10:04:29;;;;;;;87.43;42.05;;;27.20;95.90;;;;;;5023108;28;20034;-87
2023/05/07 10:06:55;;;;;;;6.75;5.72;;;27.20;96.00;;;;;;5033452;28;20024;-82
2023/05/07 10:09:21;;;;;;;5.47;4.75;;;27.20;95.80;;;;;;5014766;28;20025;-82
2023/05/07 10:11:49;;;;;;;5.30;4.80;;;27.50;94.90;;;;;;5034165;28;20555;-81
2023/05/07 10:14:15;;;;;;;5.72;4.72;;;27.70;94.40;;;;;;5021221;28;20075;-81
2023/05/07 10:16:41;;;;;;;5.80;4.63;;;27.80;93.40;;;;;;5030273;28;20091;-85
2023/05/07 10:19:11;;;;;;;5.78;5.28;;;27.80;93.70;;;;;;5022513;28;20025;-88
2023/05/07 10:25:03;;;;;;;10.02;5.70;;;27.80;93.50;;;;;;5050329;28;20040;-88
2023/05/07 10:27:30;;;;;;;5.85;4.75;;;27.80;92.80;;;;;;5037659;28;20022;-88
2023/05/07 10:30:28;;;;;;;7.32;5.10;;;27.80;93.10;;;;;;5021529;28;20117;-88
2023/05/07 10:33:06;;;;;;;;;;;;;;;;;;;;;
2023/05/07 10:35:55;;;;;;;6.97;5.78;;;28.00;92.60;;;;;;5044218;28;20025;-88
2023/05/07 10:38:21;;;;;;;6.68;6.13;;;28.30;91.20;;;;;;5023598;28;20056;-82
2023/05/07 10:40:47;;;;;;;5.72;4.85;;;28.50;90.70;;;;;;5039061;28;20681;-82
2023/05/07 10:43:16;;;;;;;6.68;4.93;;;28.90;89.90;;;;;;5038642;28;20110;-81
2023/05/07 10:45:41;;;;;;;8.77;4.80;;;29.30;88.10;;;;;;5039310;28;20028;-88
2023/05/07 10:48:19;;;;;;;8.07;5.22;;;29.40;88.70;;;;;;5021368;28;20022;-87
2023/05/07 10:51:05;;;;;;;6.53;5.93;;;29.50;88.00;;;;;;5022701;28;20527;-87
2023/05/07 10:53:31;;;;;;;5.43;4.93;;;30.00;85.90;;;;;;5035027;28;20036;-83
2023/05/07 10:56:17;;;;;;;8.98;6.22;;;29.40;86.00;;;;;;5015074;28;20028;-84
2023/05/07 10:58:42;;;;;;;5.70;4.95;;;29.40;84.20;;;;;;5020492;28;20036;-82
2023/05/07 11:01:08;;;;;;;11.85;5.90;;;29.40;84.20;;;;;;5046302;28;20013;-83
2023/05/07 11:03:53;;;;;;;7.25;5.30;;;29.20;85.30;;;;;;5045691;28;20037;-80
2023/05/07 11:06:19;;;;;;;7.90;5.93;;;28.70;84.60;;;;;;5040345;28;20032;-80
2023/05/07 11:08:58;;;;;;;8.45;4.93;;;28.40;86.50;;;;;;5034343;28;20025;-80
2023/05/07 11:11:47;;;;;;;5.72;4.93;;;28.80;84.00;;;;;;5031746;28;20441;-79
2023/05/07 11:14:14;;;;;;;6.05;5.47;;;29.00;83.40;;;;;;5017798;28;20029;-81
2023/05/07 11:16:41;;;;;;;5.38;4.88;;;29.20;84.10;;;;;;5034477;28;20021;-80
2023/05/07 11:19:07;;;;;;;5.72;4.47;;;29.30;83.10;;;;;;5022254;28;20602;-80
2023/05/07 11:21:40;;;;;;;5.07;4.57;;;29.40;79.10;;;;;;5017839;28;20021;-80
2023/05/07 11:24:10;;;;;;;5.70;4.95;;;29.40;80.10;;;;;;5035833;28;20473;-79
2023/05/07 11:26:43;;;;;;;8.43;5.40;;;29.50;80.30;;;;;;5033045;28;20033;-81
2023/05/07 11:29:20;;;;;;;6.43;4.80;;;29.40;78.90;;;;;;5021899;28;20108;-80
2023/05/07 11:31:53;;;;;;;7.28;5.03;;;29.40;79.00;;;;;;5032036;28;20516;-79
2023/05/07 11:34:23;;;;;;;5.05;4.55;;;29.20;78.10;;;;;;5034415;28;20017;-80
2023/05/07 11:36:52;;;;;;;5.28;4.78;;;29.20;79.90;;;;;;5038388;28;20083;-80
2023/05/07 11:39:29;;;;;;;5.05;4.55;;;29.20;79.40;;;;;;5036129;28;20028;-79
2023/05/07 11:41:55;;;;;;;4.80;4.40;;;29.00;78.40;;;;;;5017914;28;20079;-80
2023/05/07 11:44:21;;;;;;;6.68;4.90;;;28.60;78.80;;;;;;5038825;28;20029;-79
2023/05/07 11:46:46;;;;;;;6.70;4.97;;;28.40;80.00;;;;;;5035240;28;20032;-80
2023/05/07 11:49:12;;;;;;;5.07;4.15;;;28.30;78.70;;;;;;5023901;28;20021;-80
2023/05/07 11:51:39;;;;;;;5.07;4.53;;;28.10;79.20;;;;;;5036235;28;20094;-80
2023/05/07 11:54:08;;;;;;;4.88;4.47;;;28.10;80.10;;;;;;5034803;28;20066;-79
2023/05/07 11:56:35;;;;;;;5.28;4.78;;;27.90;81.00;;;;;;5020857;28;20025;-80
2023/05/07 11:59:01;;;;;;;4.55;3.85;;;27.70;80.70;;;;;;5016399;28;20489;-79
2023/05/07 12:01:26;;;;;;;5.82;4.95;;;27.50;81.10;;;;;;5035450;28;20113;-79
2023/05/07 12:03:52;;;;;;;4.60;4.18;;;27.40;81.50;;;;;;5035566;28;20032;-79
2023/05/07 12:06:18;;;;;;;6.82;4.10;;;27.10;82.00;;;;;;5020511;28;20799;-81
2023/05/07 12:08:45;;;;;;;4.03;3.63;;;27.00;81.90;;;;;;5037362;28;20029;-80
2023/05/07 12:11:33;;;;;;;7.53;4.15;;;27.10;81.20;;;;;;5035303;28;20081;-80
2023/05/07 12:13:59;;;;;;;4.78;4.38;;;27.20;80.80;;;;;;5034294;28;20079;-80
2023/05/07 12:16:26;;;;;;;8.48;4.68;;;27.20;81.30;;;;;;5032662;28;20025;-80
2023/05/07 12:18:58;;;;;;;6.68;5.25;;;27.40;82.00;;;;;;5034889;28;20027;-80
2023/05/07 12:21:25;;;;;;;7.93;4.30;;;27.50;81.10;;;;;;5019784;28;20361;-79
2023/05/07 12:23:50;;;;;;;6.97;4.60;;;27.60;81.40;;;;;;5021410;28;20028;-80
2023/05/07 12:26:16;;;;;;;5.63;4.63;;;27.40;81.10;;;;;;5038913;28;20029;-80
2023/05/07 12:28:47;;;;;;;7.60;4.28;;;27.10;81.10;;;;;;5025725;28;20076;-80
2023/05/07 12:31:14;;;;;;;7.88;4.50;;;27.10;82.00;;;;;;5027979;28;20032;-80
2023/05/07 12:33:43;;;;;;;4.78;4.28;;;27.00;80.60;;;;;;5036966;28;20078;-80
2023/05/07 12:36:11;;;;;;;10.85;4.53;;;27.10;81.20;;;;;;5039935;28;20044;-80
2023/05/07 12:38:38;;;;;;;5.57;4.43;;;27.20;82.00;;;;;;5039961;28;20044;-81
2023/05/07 12:41:04;;;;;;;5.63;4.57;;;27.40;80.10;;;;;;5038971;28;20091;-80
2023/05/07 12:43:30;;;;;;;6.03;4.63;;;27.50;82.40;;;;;;5026213;28;20032;-79